createdAt,value
2023-03-31T00:00:25.479Z,97444.53
2023-03-31T00:02:01.074Z,97440.69
2023-03-31T00:03:34.315Z,97441.38
2023-03-31T00:05:07.416Z,97449.41
2023-03-31T00:06:43.166Z,97448.25
2023-03-31T00:08:14.717Z,97439.16
2023-03-31T00:09:46.410Z,97439.19
2023-03-31T00:11:18.174Z,97442.38
2023-03-31T00:12:49.766Z,97447.41
2023-03-31T00:14:21.780Z,97435.00
2023-03-31T00:16:01.586Z,97436.97
2023-03-31T00:17:33.543Z,97432.72
2023-03-31T00:19:10.237Z,97441.03
2023-03-31T00:20:47.765Z,97436.84
2023-03-31T00:22:22.163Z,97434.94
2023-03-31T00:23:59.299Z,97432.13
2023-03-31T00:25:30.907Z,97429.03
2023-03-31T00:27:04.713Z,97431.94
2023-03-31T00:28:36.282Z,97430.16
2023-03-31T00:30:08.720Z,97428.69
2023-03-31T00:31:40.597Z,97426.59
2023-03-31T00:33:12.240Z,97422.19
2023-03-31T00:34:46.137Z,97424.63
2023-03-31T00:36:21.385Z,97417.28
2023-03-31T00:37:53.961Z,97414.66
2023-03-31T00:39:25.644Z,97415.47
2023-03-31T00:40:57.327Z,97408.28
2023-03-31T00:42:29.522Z,97410.91
2023-03-31T00:44:08.475Z,97401.25
2023-03-31T00:45:40.425Z,97399.13
2023-03-31T00:47:20.134Z,97393.09
2023-03-31T00:48:58.662Z,97390.28
2023-03-31T00:50:36.005Z,97381.44
2023-03-31T00:52:27.709Z,97378.66
2023-03-31T00:54:06.647Z,97379.66
2023-03-31T00:55:45.102Z,97377.84
2023-03-31T00:57:16.922Z,97385.03
2023-03-31T00:58:49.834Z,97377.72
2023-03-31T01:00:24.017Z,97381.31
2023-03-31T01:01:59.321Z,97376.38
2023-03-31T01:03:33.508Z,97369.34
2023-03-31T01:05:06.223Z,97365.81
2023-03-31T01:06:46.604Z,97360.53
2023-03-31T01:08:24.519Z,97356.13
2023-03-31T01:10:00.171Z,97357.16
2023-03-31T01:11:31.846Z,97367.81
2023-03-31T01:13:03.701Z,97368.09
2023-03-31T01:14:35.838Z,97371.34
2023-03-31T01:16:07.492Z,97362.53
2023-03-31T01:17:40.554Z,97370.59
2023-03-31T01:19:29.192Z,97366.66
2023-03-31T01:21:41.167Z,97352.63
2023-03-31T01:23:31.639Z,97363.38
2023-03-31T01:25:30.651Z,97354.72
2023-03-31T01:27:22.155Z,97352.41
2023-03-31T01:29:12.433Z,97355.31
2023-03-31T01:31:25.354Z,97349.25
2023-03-31T01:32:57.029Z,97360.66
2023-03-31T01:34:43.476Z,97348.28
2023-03-31T01:36:28.726Z,97350.03
2023-03-31T01:38:24.426Z,97346.25
2023-03-31T01:40:21.753Z,97340.72
2023-03-31T01:41:53.234Z,97333.69
2023-03-31T01:43:24.738Z,97340.31
2023-03-31T01:45:08.117Z,97350.91
2023-03-31T01:46:49.295Z,97347.16
2023-03-31T01:48:53.224Z,97348.06
2023-03-31T01:50:30.624Z,97353.97
2023-03-31T01:52:24.164Z,97352.28
2023-03-31T01:54:04.970Z,97355.44
2023-03-31T01:55:42.759Z,97357.31
2023-03-31T01:57:24.538Z,97361.88
2023-03-31T01:59:32.727Z,97357.41
2023-03-31T02:01:16.928Z,97359.50
2023-03-31T02:02:58.215Z,97363.53
2023-03-31T02:04:38.594Z,97350.25
2023-03-31T02:06:19.193Z,97353.03
2023-03-31T02:07:58.705Z,97357.41
2023-03-31T02:09:36.843Z,97361.91
2023-03-31T02:11:08.812Z,97361.59
2023-03-31T02:12:43.517Z,97353.34
2023-03-31T02:14:21.933Z,97353.66
2023-03-31T02:16:01.490Z,97349.94
2023-03-31T02:17:34.001Z,97334.31
2023-03-31T02:19:07.238Z,97316.13
2023-03-31T02:20:46.175Z,97307.47
2023-03-31T02:22:21.789Z,97303.16
2023-03-31T02:23:53.630Z,97288.34
2023-03-31T02:25:41.239Z,97280.03
2023-03-31T02:27:16.753Z,97277.28
2023-03-31T02:28:48.401Z,97271.06
2023-03-31T02:30:20.135Z,97261.25
2023-03-31T02:32:10.517Z,97269.41
2023-03-31T02:33:42.302Z,97252.78
2023-03-31T02:35:17.675Z,97236.97
2023-03-31T02:36:49.938Z,97215.44
2023-03-31T02:38:21.585Z,97213.56
2023-03-31T02:39:55.829Z,97203.41
2023-03-31T02:41:27.671Z,97198.50
2023-03-31T02:43:02.045Z,97202.84
2023-03-31T02:44:38.672Z,97195.75
2023-03-31T02:46:11.729Z,97180.75
2023-03-31T02:47:43.578Z,97175.53
2023-03-31T02:49:17.462Z,97165.66
2023-03-31T02:51:09.744Z,97163.94
2023-03-31T02:52:46.615Z,97168.44
2023-03-31T02:54:30.307Z,97165.97
2023-03-31T02:56:07.229Z,97152.09
2023-03-31T02:57:57.274Z,97155.34
2023-03-31T02:59:29.450Z,97157.34
2023-03-31T03:01:16.289Z,97152.91
2023-03-31T03:03:03.232Z,97153.44
2023-03-31T03:04:34.793Z,97155.97
2023-03-31T03:06:18.684Z,97147.22
2023-03-31T03:08:06.334Z,97144.25
2023-03-31T03:09:45.476Z,97138.22
2023-03-31T03:11:22.587Z,97133.88
2023-03-31T03:13:21.111Z,97138.38
2023-03-31T03:15:13.788Z,97138.47
2023-03-31T03:16:53.014Z,97125.69
2023-03-31T03:18:24.902Z,97119.97
2023-03-31T03:20:00.677Z,97114.91
2023-03-31T03:21:32.574Z,97105.28
2023-03-31T03:23:04.252Z,97098.31
2023-03-31T03:24:35.901Z,97094.19
2023-03-31T03:26:09.077Z,97098.06
2023-03-31T03:27:40.884Z,97098.06
2023-03-31T03:29:15.734Z,97093.56
2023-03-31T03:30:47.397Z,97083.09
2023-03-31T03:32:19.040Z,97081.72
2023-03-31T03:33:51.035Z,97081.28
2023-03-31T03:35:22.744Z,97083.19
2023-03-31T03:36:54.359Z,97075.91
2023-03-31T03:38:25.978Z,97078.03
2023-03-31T03:39:57.916Z,97073.28
2023-03-31T03:41:29.749Z,97072.00
2023-03-31T03:43:01.320Z,97059.47
2023-03-31T03:44:32.953Z,97060.72
2023-03-31T03:46:05.675Z,97055.31
2023-03-31T03:47:37.683Z,97042.06
2023-03-31T03:49:09.284Z,97038.38
2023-03-31T03:50:41.259Z,97027.81
2023-03-31T03:52:12.881Z,97034.13
2023-03-31T03:53:44.506Z,97026.31
2023-03-31T03:55:17.788Z,97021.97
2023-03-31T03:56:49.538Z,97019.72
2023-03-31T03:58:21.420Z,97018.38
2023-03-31T03:59:52.961Z,97014.78
2023-03-31T04:01:24.661Z,97009.41
2023-03-31T04:02:56.384Z,96998.38
2023-03-31T04:04:27.923Z,96993.78
2023-03-31T04:05:59.451Z,96996.91
2023-03-31T04:07:31.036Z,96980.34
2023-03-31T04:09:03.739Z,96963.53
2023-03-31T04:10:35.862Z,96945.50
2023-03-31T04:12:07.441Z,96943.19
2023-03-31T04:13:39.056Z,96939.69
2023-03-31T04:15:11.079Z,96929.84
2023-03-31T04:16:42.924Z,96936.97
2023-03-31T04:18:23.599Z,96945.59
2023-03-31T04:19:55.190Z,96943.56
2023-03-31T04:21:26.784Z,96934.84
2023-03-31T04:22:58.331Z,96935.75
2023-03-31T04:24:32.757Z,96935.09
2023-03-31T04:26:08.790Z,96940.72
2023-03-31T04:28:00.688Z,96941.38
2023-03-31T04:29:33.476Z,96945.84
2023-03-31T04:31:09.376Z,96940.88
2023-03-31T04:32:40.933Z,96944.66
2023-03-31T04:34:15.226Z,96934.59
2023-03-31T04:35:50.344Z,96936.56
2023-03-31T04:37:22.631Z,96936.72
2023-03-31T04:38:54.890Z,96937.91
2023-03-31T04:40:26.796Z,96926.91
2023-03-31T04:42:00.624Z,96924.38
2023-03-31T04:43:32.234Z,96928.81
2023-03-31T04:45:04.188Z,96929.78
2023-03-31T04:46:36.151Z,96928.97
2023-03-31T04:48:08.182Z,96927.25
2023-03-31T04:49:39.847Z,96930.13
2023-03-31T04:51:15.312Z,96936.97
2023-03-31T04:52:46.874Z,96935.09
2023-03-31T04:54:18.666Z,96923.81
2023-03-31T04:55:50.726Z,96933.28
2023-03-31T04:57:22.557Z,96924.38
2023-03-31T04:58:54.387Z,96930.94
2023-03-31T05:00:26.624Z,96926.75
2023-03-31T05:01:58.359Z,96922.03
2023-03-31T05:03:29.963Z,96920.88
2023-03-31T05:05:01.605Z,96922.50
2023-03-31T05:06:33.598Z,96917.63
2023-03-31T05:08:05.416Z,96893.03
2023-03-31T05:09:36.932Z,96908.25
2023-03-31T05:11:08.486Z,96923.59
2023-03-31T05:12:40.299Z,96927.34
2023-03-31T05:14:14.008Z,96929.97
2023-03-31T05:15:48.002Z,96934.03
2023-03-31T05:17:19.694Z,96939.00
2023-03-31T05:18:51.334Z,96948.41
2023-03-31T05:20:22.868Z,96943.75
2023-03-31T05:21:54.443Z,96933.31
2023-03-31T05:23:26.267Z,96922.41
2023-03-31T05:24:57.885Z,96921.78
2023-03-31T05:26:29.463Z,96922.41
2023-03-31T05:28:01.556Z,96923.66
2023-03-31T05:29:33.188Z,96914.56
2023-03-31T05:31:06.071Z,96915.09
2023-03-31T05:32:37.763Z,96909.53
2023-03-31T05:34:09.412Z,96895.19
2023-03-31T05:35:41.126Z,96902.69
2023-03-31T05:37:12.769Z,96897.81
2023-03-31T05:38:44.691Z,96895.00
2023-03-31T05:40:16.617Z,96891.75
2023-03-31T05:41:48.347Z,96902.31
2023-03-31T05:43:19.963Z,96899.88
2023-03-31T05:44:51.540Z,96909.34
2023-03-31T05:46:23.261Z,96907.25
2023-03-31T05:47:54.958Z,96899.16
2023-03-31T05:49:26.531Z,96904.56
2023-03-31T05:50:59.436Z,96896.91
2023-03-31T05:52:32.884Z,96883.00
2023-03-31T05:54:04.447Z,96873.28
2023-03-31T05:55:36.862Z,96874.50
2023-03-31T05:57:09.476Z,96868.81
2023-03-31T05:58:41.138Z,96864.41
2023-03-31T06:00:13.391Z,96872.31
2023-03-31T06:01:45.297Z,96857.16
2023-03-31T06:03:17.022Z,96846.50
2023-03-31T06:04:48.629Z,96835.97
2023-03-31T06:06:21.329Z,96841.34
2023-03-31T06:07:53.735Z,96840.31
2023-03-31T06:09:26.192Z,96835.31
2023-03-31T06:10:58.213Z,96830.59
2023-03-31T06:12:29.838Z,96827.66
2023-03-31T06:14:01.457Z,96823.22
2023-03-31T06:15:33.173Z,96829.88
2023-03-31T06:17:04.841Z,96827.09
2023-03-31T06:18:36.785Z,96825.25
2023-03-31T06:20:20.447Z,96836.22
2023-03-31T06:21:58.430Z,96843.34
2023-03-31T06:23:30.408Z,96834.25
2023-03-31T06:25:02.114Z,96830.75
2023-03-31T06:26:33.757Z,96830.16
2023-03-31T06:28:07.475Z,96820.88
2023-03-31T06:29:39.068Z,96794.56
2023-03-31T06:31:16.464Z,96786.25
2023-03-31T06:32:48.123Z,96810.66
2023-03-31T06:34:21.350Z,96791.09
2023-03-31T06:35:56.484Z,96794.63
2023-03-31T06:37:28.169Z,96824.06
2023-03-31T06:38:59.769Z,96826.22
2023-03-31T06:40:31.703Z,96840.84
2023-03-31T06:42:03.770Z,96850.56
2023-03-31T06:43:37.796Z,96861.94
2023-03-31T06:45:09.922Z,96885.03
2023-03-31T06:46:41.817Z,96896.47
2023-03-31T06:48:14.032Z,96907.91
2023-03-31T06:49:46.256Z,96899.44
2023-03-31T06:51:18.012Z,96905.34
2023-03-31T06:52:52.754Z,96931.22
2023-03-31T06:54:24.582Z,96930.25
2023-03-31T06:55:56.267Z,96918.69
2023-03-31T06:57:29.056Z,96936.16
2023-03-31T06:59:01.095Z,96945.94
2023-03-31T07:00:33.851Z,96947.97
2023-03-31T07:02:05.450Z,96953.13
2023-03-31T07:03:37.910Z,96960.94
2023-03-31T07:05:09.639Z,96956.66
2023-03-31T07:06:41.488Z,96953.31
2023-03-31T07:08:13.125Z,96950.06
2023-03-31T07:09:44.765Z,96959.34
2023-03-31T07:11:16.723Z,96960.94
2023-03-31T07:12:48.468Z,96968.78
2023-03-31T07:14:20.209Z,96976.00
2023-03-31T07:15:52.050Z,96899.50
2023-03-31T07:17:25.494Z,96908.84
2023-03-31T07:18:58.059Z,96910.47
2023-03-31T07:20:31.017Z,96907.97
2023-03-31T07:22:02.613Z,96907.63
2023-03-31T07:23:35.671Z,96919.13
2023-03-31T07:25:09.182Z,96917.56
2023-03-31T07:26:40.837Z,96925.53
2023-03-31T07:28:12.408Z,96922.59
2023-03-31T07:29:44.107Z,96914.44
2023-03-31T07:31:16.501Z,96912.28
2023-03-31T07:32:52.078Z,96920.50
2023-03-31T07:34:23.744Z,96913.00
2023-03-31T07:36:08.261Z,96900.91
2023-03-31T07:37:46.293Z,96898.13
2023-03-31T07:39:17.860Z,96891.53
2023-03-31T07:41:01.934Z,96878.72
2023-03-31T07:42:39.768Z,96876.13
2023-03-31T07:44:11.373Z,96875.22
2023-03-31T07:45:43.097Z,96865.28
2023-03-31T07:47:14.766Z,96870.75
2023-03-31T07:48:48.164Z,96860.59
2023-03-31T07:50:20.524Z,96858.97
2023-03-31T07:51:54.079Z,96861.28
2023-03-31T07:53:25.826Z,96859.81
2023-03-31T07:54:57.488Z,96843.50
2023-03-31T07:56:31.672Z,96836.47
2023-03-31T07:58:03.298Z,96825.25
2023-03-31T07:59:34.882Z,96836.09
2023-03-31T08:01:08.068Z,96821.50
2023-03-31T08:02:43.065Z,96823.53
2023-03-31T08:04:14.929Z,96828.66
2023-03-31T08:05:46.565Z,96823.94
2023-03-31T08:07:18.192Z,96811.44
2023-03-31T08:08:50.421Z,96816.78
2023-03-31T08:10:26.044Z,96807.78
2023-03-31T08:11:57.618Z,96814.75
2023-03-31T08:13:29.307Z,96811.69
2023-03-31T08:15:01.515Z,96810.25
2023-03-31T08:16:33.191Z,96810.97
2023-03-31T08:18:05.577Z,96812.63
2023-03-31T08:19:37.397Z,96820.28
2023-03-31T08:21:12.194Z,96819.34
2023-03-31T08:22:43.833Z,96814.72
2023-03-31T08:24:15.420Z,96813.59
2023-03-31T08:25:47.380Z,96811.44
2023-03-31T08:27:19.027Z,96810.31
2023-03-31T08:28:50.749Z,96811.97
2023-03-31T08:30:23.384Z,96817.03
2023-03-31T08:31:55.562Z,96813.41
2023-03-31T08:33:27.222Z,96805.94
2023-03-31T08:34:59.216Z,96811.44
2023-03-31T08:36:31.159Z,96806.88
2023-03-31T08:38:03.135Z,96815.53
2023-03-31T08:39:37.134Z,96802.38
2023-03-31T08:41:19.507Z,96798.09
2023-03-31T08:42:56.057Z,96807.34
2023-03-31T08:44:41.108Z,96802.28
2023-03-31T08:46:15.998Z,96805.03
2023-03-31T08:47:51.734Z,96801.66
2023-03-31T08:49:26.138Z,96801.56
2023-03-31T08:51:08.471Z,96810.38
2023-03-31T08:52:45.860Z,96808.28
2023-03-31T08:54:24.999Z,96796.91
2023-03-31T08:55:58.910Z,96804.22
2023-03-31T08:57:53.020Z,96802.94
2023-03-31T08:59:29.833Z,96799.66
2023-03-31T09:01:23.122Z,96783.41
2023-03-31T09:03:07.268Z,96784.31
2023-03-31T09:05:00.735Z,96780.97
2023-03-31T09:06:43.439Z,96781.59
2023-03-31T09:08:35.740Z,96786.59
2023-03-31T09:10:13.613Z,96794.41
2023-03-31T09:11:53.856Z,96768.84
2023-03-31T09:13:40.657Z,96764.66
2023-03-31T09:15:20.173Z,96776.66
2023-03-31T09:17:06.687Z,96758.81
2023-03-31T09:18:40.590Z,96759.75
2023-03-31T09:20:32.323Z,96790.06
2023-03-31T09:22:09.868Z,96762.31
2023-03-31T09:24:16.884Z,96752.41
2023-03-31T09:25:48.896Z,96750.28
2023-03-31T09:27:21.238Z,96762.63
2023-03-31T09:28:56.414Z,96748.31
2023-03-31T09:30:29.633Z,96743.03
2023-03-31T09:32:09.920Z,96740.41
2023-03-31T09:33:45.924Z,96762.06
2023-03-31T09:35:21.477Z,96759.72
2023-03-31T09:36:53.063Z,96756.41
2023-03-31T09:38:29.431Z,96736.34
2023-03-31T09:40:07.861Z,96732.53
2023-03-31T09:41:43.498Z,96731.50
2023-03-31T09:43:14.929Z,96732.53
2023-03-31T09:44:50.107Z,96729.22
2023-03-31T09:46:35.013Z,96738.34
2023-03-31T09:48:13.303Z,96724.75
2023-03-31T09:49:53.725Z,96718.66
2023-03-31T09:51:30.616Z,96709.91
2023-03-31T09:53:05.256Z,96715.53
2023-03-31T09:54:37.089Z,96706.03
2023-03-31T09:56:11.292Z,96708.59
2023-03-31T09:57:43.145Z,96713.53
2023-03-31T09:59:32.901Z,96707.63
2023-03-31T10:01:09.073Z,96708.16
2023-03-31T10:02:49.837Z,96696.06
2023-03-31T10:04:28.215Z,96690.94
2023-03-31T10:06:00.017Z,96694.16
2023-03-31T10:07:32.819Z,96694.09
2023-03-31T10:09:05.602Z,96684.91
2023-03-31T10:10:38.135Z,96685.69
2023-03-31T10:12:17.602Z,96692.81
2023-03-31T10:14:03.027Z,96683.25
2023-03-31T10:15:40.350Z,96685.38
2023-03-31T10:17:18.593Z,96668.94
2023-03-31T10:18:50.508Z,96683.00
2023-03-31T10:20:38.690Z,96668.88
2023-03-31T10:22:26.470Z,96655.91
2023-03-31T10:24:01.869Z,96653.34
2023-03-31T10:25:34.232Z,96648.69
2023-03-31T10:27:13.988Z,96645.13
2023-03-31T10:28:49.503Z,96635.03
2023-03-31T10:30:22.360Z,96635.13
2023-03-31T10:31:54.368Z,96631.25
2023-03-31T10:33:28.470Z,96625.72
2023-03-31T10:35:28.456Z,96620.72
2023-03-31T10:37:00.152Z,96629.72
2023-03-31T10:38:40.682Z,96624.19
2023-03-31T10:40:18.069Z,96612.91
2023-03-31T10:41:51.584Z,96606.06
2023-03-31T10:43:29.171Z,96595.94
2023-03-31T10:45:36.458Z,96598.50
2023-03-31T10:47:18.211Z,96598.22
2023-03-31T10:48:51.435Z,96598.75
2023-03-31T10:50:29.366Z,96580.69
2023-03-31T10:52:01.414Z,96590.97
2023-03-31T10:53:48.286Z,96588.34
2023-03-31T10:55:30.458Z,96589.16
2023-03-31T10:57:05.519Z,96584.03
2023-03-31T10:58:58.375Z,96586.69
2023-03-31T11:00:55.153Z,96566.78
2023-03-31T11:02:35.868Z,96582.97
2023-03-31T11:04:26.121Z,96580.56
2023-03-31T11:06:09.671Z,96578.75
2023-03-31T11:08:04.522Z,96587.69
2023-03-31T11:10:03.386Z,96606.41
2023-03-31T11:12:02.891Z,96652.63
2023-03-31T11:13:34.609Z,96634.34
2023-03-31T11:15:20.770Z,96636.97
2023-03-31T11:17:08.526Z,96683.22
2023-03-31T11:18:57.780Z,96804.91
2023-03-31T11:20:32.220Z,96855.38
2023-03-31T11:22:26.697Z,96890.19
2023-03-31T11:24:16.196Z,96875.63
2023-03-31T11:26:11.472Z,96882.31
2023-03-31T11:28:20.950Z,96864.09
2023-03-31T11:29:55.703Z,96867.16
2023-03-31T11:31:47.739Z,96863.94
2023-03-31T11:33:46.862Z,96869.00
2023-03-31T11:35:37.278Z,96871.13
2023-03-31T11:37:21.519Z,96915.03
2023-03-31T11:39:10.282Z,96886.56
2023-03-31T11:40:56.811Z,96875.41
2023-03-31T11:42:42.558Z,96862.09
2023-03-31T11:44:18.636Z,96858.03
2023-03-31T11:45:55.872Z,96850.81
2023-03-31T11:47:33.726Z,96826.13
2023-03-31T11:49:19.291Z,96817.47
2023-03-31T11:50:51.520Z,96805.44
2023-03-31T11:52:41.874Z,96797.63
2023-03-31T11:54:23.993Z,96792.19
2023-03-31T11:55:57.954Z,96781.16
2023-03-31T11:57:53.106Z,96781.56
2023-03-31T11:59:31.894Z,96780.34
2023-03-31T12:01:23.985Z,96786.81
2023-03-31T12:03:11.152Z,96778.94
2023-03-31T12:04:46.702Z,96775.50
2023-03-31T12:06:23.324Z,96772.25
2023-03-31T12:08:11.423Z,96765.81
2023-03-31T12:09:48.769Z,96767.00
2023-03-31T12:11:36.072Z,96778.53
2023-03-31T12:13:29.218Z,96779.94
2023-03-31T12:15:27.494Z,96759.09
2023-03-31T12:17:12.284Z,96735.84
2023-03-31T12:18:57.296Z,96736.22
2023-03-31T12:20:31.704Z,96717.56
2023-03-31T12:22:22.357Z,96705.09
2023-03-31T12:23:54.333Z,96703.09
2023-03-31T12:25:36.947Z,96705.16
2023-03-31T12:27:18.539Z,96685.50
2023-03-31T12:28:59.687Z,96682.09
2023-03-31T12:30:39.541Z,96670.22
2023-03-31T12:32:21.330Z,96660.69
2023-03-31T12:34:07.387Z,96657.25
2023-03-31T12:36:07.553Z,96653.00
2023-03-31T12:37:51.768Z,96651.94
2023-03-31T12:39:51.647Z,96645.94
2023-03-31T12:41:43.213Z,96659.41
2023-03-31T12:43:56.287Z,96655.22
2023-03-31T12:45:35.347Z,96660.72
2023-03-31T12:47:19.098Z,96650.25
2023-03-31T12:48:56.663Z,96657.03
2023-03-31T12:50:33.248Z,96649.31
2023-03-31T12:52:12.435Z,96665.22
2023-03-31T12:54:16.034Z,96649.59
2023-03-31T12:55:57.839Z,96647.47
2023-03-31T12:57:29.657Z,96642.41
2023-03-31T12:59:19.077Z,96640.59
2023-03-31T13:01:08.077Z,96638.41
2023-03-31T13:02:41.243Z,96634.00
2023-03-31T13:04:22.136Z,96633.41
2023-03-31T13:05:53.798Z,96626.16
2023-03-31T13:07:28.302Z,96628.25
2023-03-31T13:09:08.481Z,96615.06
2023-03-31T13:10:58.155Z,96617.81
2023-03-31T13:12:33.132Z,96617.22
2023-03-31T13:14:14.132Z,96614.31
2023-03-31T13:15:54.574Z,96636.59
2023-03-31T13:17:35.710Z,96646.59
2023-03-31T13:19:07.781Z,96643.00
2023-03-31T13:20:40.900Z,96638.13
2023-03-31T13:22:31.680Z,96638.47
2023-03-31T13:24:07.258Z,96643.59
2023-03-31T13:25:43.572Z,96635.31
2023-03-31T13:27:35.626Z,96644.47
2023-03-31T13:29:16.489Z,96648.56
2023-03-31T13:31:14.313Z,96663.03
2023-03-31T13:33:05.040Z,96666.78
2023-03-31T13:34:45.040Z,96675.50
2023-03-31T13:36:41.156Z,96680.16
2023-03-31T13:38:22.942Z,96672.09
2023-03-31T13:40:24.875Z,96691.66
2023-03-31T13:42:14.748Z,96681.13
2023-03-31T13:44:01.359Z,96706.50
2023-03-31T13:45:52.888Z,96709.91
2023-03-31T13:47:39.925Z,96725.97
2023-03-31T13:49:40.528Z,96721.13
2023-03-31T13:51:28.724Z,96750.25
2023-03-31T13:53:37.968Z,96739.78
2023-03-31T13:55:24.362Z,96737.75
2023-03-31T13:57:27.348Z,96742.78
2023-03-31T13:59:11.901Z,96729.78
2023-03-31T14:01:09.952Z,96673.38
2023-03-31T14:03:19.161Z,96666.75
2023-03-31T14:05:02.751Z,96651.78
2023-03-31T14:06:38.382Z,96638.59
2023-03-31T14:08:14.859Z,96639.94
2023-03-31T14:09:50.006Z,96651.44
2023-03-31T14:11:26.395Z,96650.19
2023-03-31T14:13:18.239Z,96657.13
2023-03-31T14:14:54.569Z,96660.63
2023-03-31T14:16:27.100Z,96663.28
2023-03-31T14:17:58.749Z,96668.13
2023-03-31T14:20:24.220Z,96660.06
2023-03-31T14:21:58.799Z,96659.88
2023-03-31T14:23:48.206Z,96646.97
2023-03-31T14:25:31.732Z,96629.19
2023-03-31T14:27:21.909Z,96642.25
2023-03-31T14:29:03.884Z,96632.91
2023-03-31T14:30:47.608Z,96631.66
2023-03-31T14:32:32.446Z,96620.97
2023-03-31T14:34:26.273Z,96633.28
2023-03-31T14:36:02.663Z,96630.44
2023-03-31T14:37:34.370Z,96628.03
2023-03-31T14:39:11.670Z,96636.13
2023-03-31T14:40:48.506Z,96633.31
2023-03-31T14:42:28.835Z,96642.63
2023-03-31T14:44:02.879Z,96645.44
2023-03-31T14:45:34.578Z,96638.81
2023-03-31T14:47:06.670Z,96613.22
2023-03-31T14:48:45.980Z,96610.59
2023-03-31T14:50:18.896Z,96621.91
2023-03-31T14:51:53.099Z,96617.63
2023-03-31T14:53:26.461Z,96628.97
2023-03-31T14:54:59.442Z,96631.50
2023-03-31T14:56:39.180Z,96617.34
2023-03-31T14:58:15.001Z,96623.22
2023-03-31T14:59:47.906Z,96626.00
2023-03-31T15:01:26.224Z,96624.38
2023-03-31T15:03:01.020Z,96625.38
2023-03-31T15:04:44.789Z,96621.09
2023-03-31T15:06:16.782Z,96626.16
2023-03-31T15:07:48.738Z,96626.34
2023-03-31T15:09:29.871Z,96623.53
2023-03-31T15:12:43.457Z,96623.72
2023-03-31T15:14:15.341Z,96623.47
2023-03-31T15:15:47.006Z,96624.94
2023-03-31T15:17:24.805Z,96618.13
2023-03-31T15:18:57.995Z,96618.13
2023-03-31T15:20:31.847Z,96611.63
2023-03-31T15:22:16.414Z,96606.94
2023-03-31T15:23:53.181Z,96613.66
2023-03-31T15:25:36.844Z,96612.25
2023-03-31T15:27:33.983Z,96608.16
2023-03-31T15:29:16.464Z,96613.66
2023-03-31T15:30:54.371Z,96618.13
2023-03-31T15:32:37.867Z,96616.69
2023-03-31T15:34:28.060Z,96621.31
2023-03-31T15:36:00.443Z,96619.97
2023-03-31T15:37:43.565Z,96610.28
2023-03-31T15:39:15.316Z,96612.88
2023-03-31T15:40:54.542Z,96612.66
2023-03-31T15:42:28.000Z,96614.69
2023-03-31T15:44:30.798Z,96610.47
2023-03-31T15:46:02.593Z,96608.28
2023-03-31T15:47:38.669Z,96606.47
2023-03-31T15:49:21.747Z,96612.06
2023-03-31T15:51:01.020Z,96617.09
2023-03-31T15:52:38.790Z,96612.69
2023-03-31T15:54:43.072Z,96616.53
2023-03-31T15:56:33.565Z,96612.50
2023-03-31T15:58:17.436Z,96607.69
2023-03-31T15:59:55.925Z,96607.91
2023-03-31T16:01:32.882Z,96612.56
2023-03-31T16:03:14.691Z,96609.06
2023-03-31T16:04:53.628Z,96606.66
2023-03-31T16:06:52.640Z,96615.50
2023-03-31T16:08:42.998Z,96619.13
2023-03-31T16:10:21.614Z,96619.59
2023-03-31T16:12:03.976Z,96617.56
2023-03-31T16:13:40.025Z,96616.00
2023-03-31T16:15:18.384Z,96619.00
2023-03-31T16:16:54.679Z,96605.53
2023-03-31T16:18:36.256Z,96609.75
2023-03-31T16:20:22.629Z,96608.94
2023-03-31T16:21:59.394Z,96610.78
2023-03-31T16:23:38.692Z,96616.59
2023-03-31T16:25:13.392Z,96626.31
2023-03-31T16:26:45.129Z,96631.59
2023-03-31T16:28:20.636Z,96638.03
2023-03-31T16:30:06.475Z,96642.63
2023-03-31T16:31:40.889Z,96658.00
2023-03-31T16:33:18.732Z,96661.44
2023-03-31T16:34:58.008Z,96674.19
2023-03-31T16:36:29.995Z,96689.53
2023-03-31T16:38:04.186Z,96690.34
2023-03-31T16:39:35.712Z,96693.56
2023-03-31T16:41:07.320Z,96704.63
2023-03-31T16:42:39.045Z,96697.56
2023-03-31T16:45:50.939Z,96657.13
2023-03-31T16:47:34.551Z,96645.97
2023-03-31T16:49:06.562Z,96630.41
2023-03-31T16:50:38.461Z,96620.16
2023-03-31T16:52:10.149Z,96629.25
2023-03-31T16:53:41.847Z,96632.84
2023-03-31T16:55:13.689Z,96639.06
2023-03-31T16:56:45.761Z,96632.56
2023-03-31T16:58:18.018Z,96631.56
2023-03-31T16:59:49.718Z,96620.72
2023-03-31T17:01:21.510Z,96616.03
2023-03-31T17:02:53.264Z,96621.81
2023-03-31T17:04:25.398Z,96615.56
2023-03-31T17:05:59.281Z,96612.72
2023-03-31T17:07:31.233Z,96620.78
2023-03-31T17:09:03.545Z,96608.50
2023-03-31T17:10:35.732Z,96606.09
2023-03-31T17:12:07.395Z,96598.03
2023-03-31T17:13:39.960Z,96601.06
2023-03-31T17:15:12.666Z,96606.63
2023-03-31T17:16:48.539Z,96611.63
2023-03-31T17:18:20.798Z,96621.28
2023-03-31T17:19:53.079Z,96621.91
2023-03-31T17:21:26.333Z,96632.19
2023-03-31T17:22:58.588Z,96632.59
2023-03-31T17:24:30.334Z,96625.59
2023-03-31T17:26:04.198Z,96627.84
2023-03-31T17:27:36.489Z,96626.41
2023-03-31T17:29:08.166Z,96632.47
2023-03-31T17:30:40.188Z,96626.28
2023-03-31T17:32:13.679Z,96628.25
2023-03-31T17:33:46.258Z,96640.94
2023-03-31T17:35:21.497Z,96653.22
2023-03-31T17:36:55.418Z,96658.22
2023-03-31T17:38:27.493Z,96664.28
2023-03-31T17:39:59.390Z,96658.59
2023-03-31T17:41:31.610Z,96665.03
2023-03-31T17:43:03.491Z,96655.38
2023-03-31T17:44:35.518Z,96645.34
2023-03-31T17:46:12.934Z,96640.78
2023-03-31T17:47:46.322Z,96643.13
2023-03-31T17:49:18.143Z,96643.38
2023-03-31T17:50:49.700Z,96639.75
2023-03-31T17:52:21.396Z,96649.56
2023-03-31T17:53:53.200Z,96658.56
2023-03-31T17:55:24.862Z,96668.69
2023-03-31T17:56:56.479Z,96654.25
2023-03-31T17:58:28.272Z,96667.38
2023-03-31T17:59:59.889Z,96668.72
2023-03-31T18:01:31.743Z,96678.44
2023-03-31T18:03:03.460Z,96674.63
2023-03-31T18:04:35.136Z,96684.66
2023-03-31T18:06:11.761Z,96668.34
2023-03-31T18:07:43.483Z,96672.78
2023-03-31T18:09:15.185Z,96668.44
2023-03-31T18:10:46.847Z,96667.28
2023-03-31T18:12:18.852Z,96666.28
2023-03-31T18:13:51.158Z,96669.25
2023-03-31T18:15:22.781Z,96676.94
2023-03-31T18:16:54.479Z,96674.53
2023-03-31T18:18:28.998Z,96680.41
2023-03-31T18:20:00.702Z,96685.63
2023-03-31T18:21:32.297Z,96686.16
2023-03-31T18:23:04.652Z,96691.47
2023-03-31T18:24:38.385Z,96691.22
2023-03-31T18:26:12.859Z,96702.06
2023-03-31T18:27:44.589Z,96693.84
2023-03-31T18:29:16.470Z,96699.66
2023-03-31T18:30:48.235Z,96707.66
2023-03-31T18:32:20.206Z,96699.81
2023-03-31T18:33:52.383Z,96708.31
2023-03-31T18:35:24.199Z,96706.06
2023-03-31T18:36:55.969Z,96702.03
2023-03-31T18:38:28.099Z,96697.97
2023-03-31T18:39:59.800Z,96699.81
2023-03-31T18:41:31.380Z,96692.97
2023-03-31T18:43:03.128Z,96693.78
2023-03-31T18:44:36.007Z,96701.44
2023-03-31T18:46:07.752Z,96697.56
2023-03-31T18:47:40.038Z,96698.72
2023-03-31T18:49:12.082Z,96693.50
2023-03-31T18:50:43.973Z,96691.06
2023-03-31T18:52:16.341Z,96696.66
2023-03-31T18:53:47.924Z,96698.91
2023-03-31T18:55:20.066Z,96704.00
2023-03-31T18:56:51.729Z,96699.50
2023-03-31T18:58:23.950Z,96697.81
2023-03-31T18:59:55.736Z,96706.06
2023-03-31T19:01:28.639Z,96707.81
2023-03-31T19:03:00.257Z,96705.38
2023-03-31T19:04:32.713Z,96709.50
2023-03-31T19:06:12.323Z,96707.28
2023-03-31T19:07:43.978Z,96712.22